METAR Data
IDs: Format: Raw Decoded Include TAF

Data at: 2216 UTC 01 Dec 2021

METAR for:KUNI (Albany/Ohio Univ Arp, OH, US)
Text:KUNI 012155Z AUTO 00000KT 10SM BKN075 BKN095 07/06 A2995 RMK AO2 T00680058
Temperature: 6.8°C ( 44°F)
Dewpoint: 5.8°C ( 42°F) [RH = 93%]
Pressure (altimeter):29.95 inches Hg (1014.3 mb)
Winds:calm
Visibility:10 or more sm (16+ km)
Ceiling:7500 feet AGL
Clouds: broken clouds at 7500 feet AGL, broken clouds at 9500 feet AGL
QC Flag:automated observation with no human augmentation